createdAt,value
2022-10-02T00:01:17.861Z,13.60
2022-10-02T00:05:24.032Z,13.50
2022-10-02T00:09:31.231Z,13.50
2022-10-02T00:13:39.904Z,13.50
2022-10-02T00:17:45.922Z,13.40
2022-10-02T00:21:59.557Z,13.30
2022-10-02T00:26:07.097Z,13.30
2022-10-02T00:30:13.706Z,13.30
2022-10-02T00:34:21.835Z,13.20
2022-10-02T00:38:43.368Z,13.20
2022-10-02T00:43:06.655Z,13.20
2022-10-02T00:47:20.808Z,13.20
2022-10-02T00:51:37.851Z,13.20
2022-10-02T00:55:58.389Z,13.20
2022-10-02T01:00:07.047Z,13.20
2022-10-02T01:04:15.521Z,13.20
2022-10-02T01:08:18.598Z,13.20
2022-10-02T01:12:21.369Z,13.20
2022-10-02T01:16:24.450Z,13.20
2022-10-02T01:20:33.198Z,13.20
2022-10-02T01:24:40.723Z,13.20
2022-10-02T01:28:44.828Z,13.20
2022-10-02T01:32:51.231Z,13.20
2022-10-02T01:36:54.190Z,13.20
2022-10-02T01:40:56.946Z,13.30
2022-10-02T01:45:01.365Z,13.20
2022-10-02T01:49:13.688Z,13.20
2022-10-02T01:53:21.947Z,13.30
2022-10-02T01:57:32.649Z,13.30
2022-10-02T02:01:48.331Z,13.30
2022-10-02T02:05:57.166Z,13.40
2022-10-02T02:10:05.547Z,13.50
2022-10-02T02:14:15.266Z,13.40
2022-10-02T02:18:26.397Z,13.40
2022-10-02T02:22:31.975Z,13.30
2022-10-02T02:26:35.289Z,13.30
2022-10-02T02:30:40.558Z,13.30
2022-10-02T02:34:48.502Z,13.40
2022-10-02T02:38:54.404Z,13.30
2022-10-02T02:43:02.274Z,13.40
2022-10-02T02:47:11.163Z,13.40
2022-10-02T02:51:19.571Z,13.30
2022-10-02T02:55:25.906Z,13.40
2022-10-02T02:59:32.278Z,13.40
2022-10-02T03:03:35.048Z,13.30
2022-10-02T03:07:39.198Z,13.30
2022-10-02T03:11:52.861Z,13.30
2022-10-02T03:16:08.623Z,13.30
2022-10-02T03:20:17.515Z,13.30
2022-10-02T03:24:28.393Z,13.30
2022-10-02T03:28:53.656Z,13.30
2022-10-02T03:33:00.940Z,13.30
2022-10-02T03:37:04.211Z,13.30
2022-10-02T03:41:08.719Z,13.30
2022-10-02T03:45:23.101Z,13.30
2022-10-02T03:49:34.766Z,13.30
2022-10-02T03:53:37.530Z,13.30
2022-10-02T03:57:44.790Z,13.30
2022-10-02T04:01:51.535Z,13.20
2022-10-02T04:06:00.032Z,13.20
2022-10-02T04:10:19.515Z,13.20
2022-10-02T04:14:27.975Z,13.20
2022-10-02T04:18:37.704Z,13.20
2022-10-02T04:22:46.689Z,13.20
2022-10-02T04:27:01.270Z,13.10
2022-10-02T04:31:09.719Z,13.10
2022-10-02T04:35:18.108Z,13.30
2022-10-02T04:39:32.557Z,13.20
2022-10-02T04:43:48.396Z,13.30
2022-10-02T04:48:15.648Z,13.20
2022-10-02T04:52:24.748Z,13.20
2022-10-02T04:57:06.514Z,13.20
2022-10-02T05:01:16.402Z,13.20
2022-10-02T05:05:29.464Z,13.20
2022-10-02T05:09:34.915Z,13.30
2022-10-02T05:13:53.632Z,13.20
2022-10-02T05:18:14.596Z,13.20
2022-10-02T05:22:55.477Z,13.20
2022-10-02T05:27:29.804Z,13.20
2022-10-02T05:31:43.698Z,13.20
2022-10-02T05:36:06.614Z,13.20
2022-10-02T05:40:18.401Z,13.20
2022-10-02T05:44:27.079Z,13.20
2022-10-02T05:48:38.420Z,13.30
2022-10-02T05:52:47.810Z,13.30
2022-10-02T05:56:58.317Z,13.30
2022-10-02T06:01:09.115Z,13.30
2022-10-02T06:05:18.490Z,13.20
2022-10-02T06:09:26.747Z,13.30
2022-10-02T06:13:36.878Z,13.30
2022-10-02T06:17:45.769Z,13.30
2022-10-02T06:21:52.030Z,13.30
2022-10-02T06:25:58.274Z,13.40
2022-10-02T06:30:05.623Z,13.30
2022-10-02T06:34:13.052Z,13.30
2022-10-02T06:38:32.212Z,13.30
2022-10-02T06:42:47.120Z,13.30
2022-10-02T06:47:02.793Z,13.30
2022-10-02T06:51:13.574Z,13.40
2022-10-02T06:55:31.484Z,13.30
2022-10-02T07:00:03.369Z,13.30
2022-10-02T07:04:19.064Z,13.40
2022-10-02T07:08:37.847Z,13.40
2022-10-02T07:13:04.213Z,13.40
2022-10-02T07:17:23.699Z,13.40
2022-10-02T07:21:38.273Z,13.40
2022-10-02T07:25:58.121Z,13.50
2022-10-02T07:30:05.073Z,13.50
2022-10-02T07:34:22.208Z,13.40
2022-10-02T07:38:45.349Z,13.50
2022-10-02T07:43:03.131Z,13.50
2022-10-02T07:47:19.499Z,13.40
2022-10-02T07:51:50.066Z,13.50
2022-10-02T07:55:54.937Z,13.50
2022-10-02T08:00:04.988Z,13.60
2022-10-02T08:04:19.585Z,13.50
2022-10-02T08:08:29.489Z,13.60
2022-10-02T08:12:38.380Z,13.60
2022-10-02T08:16:49.349Z,13.70
2022-10-02T08:20:52.722Z,13.70
2022-10-02T08:24:58.882Z,13.80
2022-10-02T08:29:05.866Z,13.80
2022-10-02T08:33:17.564Z,13.70
2022-10-02T08:37:43.079Z,13.90
2022-10-02T08:42:21.410Z,14.20
2022-10-02T08:47:10.365Z,14.50
2022-10-02T08:51:41.039Z,14.50
2022-10-02T08:56:03.565Z,14.50
2022-10-02T09:00:18.035Z,14.70
2022-10-02T09:05:09.649Z,14.80
2022-10-02T09:09:58.719Z,15.10
2022-10-02T09:14:43.566Z,15.40
2022-10-02T09:18:59.965Z,16.00
2022-10-02T09:23:28.214Z,16.20
2022-10-02T09:28:18.004Z,15.80
2022-10-02T09:33:03.803Z,15.60
2022-10-02T09:37:28.525Z,15.60
2022-10-02T09:42:06.480Z,15.80
2022-10-02T09:47:06.970Z,15.70
2022-10-02T09:52:03.418Z,15.80
2022-10-02T09:56:31.137Z,15.70
2022-10-02T10:00:58.794Z,15.80
2022-10-02T10:05:35.930Z,15.90
2022-10-02T10:10:10.846Z,16.00
2022-10-02T10:14:45.621Z,16.20
2022-10-02T10:19:12.660Z,16.20
2022-10-02T10:29:22.222Z,16.40
2022-10-02T10:33:55.711Z,16.50
2022-10-02T10:38:34.540Z,16.60
2022-10-02T10:43:07.903Z,16.80
2022-10-02T10:47:44.655Z,16.90
2022-10-02T10:51:59.318Z,17.10
2022-10-02T10:56:36.878Z,17.90
2022-10-02T11:00:55.495Z,18.40
2022-10-02T11:05:18.272Z,18.40
2022-10-02T11:10:00.439Z,19.00
2022-10-02T11:14:20.632Z,19.40
2022-10-02T11:18:48.397Z,19.20
2022-10-02T11:23:32.395Z,19.50
2022-10-02T11:27:57.603Z,18.90
2022-10-02T11:32:21.043Z,19.40
2022-10-02T11:36:46.868Z,20.90
2022-10-02T11:41:01.111Z,21.80
2022-10-02T11:45:37.101Z,20.50
2022-10-02T11:50:00.895Z,20.00
2022-10-02T11:54:22.246Z,20.10
2022-10-02T11:58:41.818Z,19.90
2022-10-02T12:02:54.499Z,19.90
2022-10-02T12:07:14.875Z,19.50
2022-10-02T12:11:25.796Z,19.20
2022-10-02T12:15:38.715Z,19.30
2022-10-02T12:20:12.811Z,19.30
2022-10-02T12:24:44.279Z,21.70
2022-10-02T12:28:56.792Z,21.80
2022-10-02T12:33:27.201Z,20.70
2022-10-02T12:37:41.730Z,21.50
2022-10-02T12:42:03.258Z,21.80
2022-10-02T12:46:29.624Z,22.10
2022-10-02T12:50:51.652Z,22.50
2022-10-02T12:55:18.418Z,21.50
2022-10-02T12:59:26.008Z,21.10
2022-10-02T13:03:56.350Z,20.50
2022-10-02T13:08:20.174Z,19.80
2022-10-02T13:12:43.265Z,19.60
2022-10-02T13:17:10.865Z,19.50
2022-10-02T13:21:18.263Z,19.30
2022-10-02T13:25:34.945Z,19.20
2022-10-02T13:29:45.990Z,19.20
2022-10-02T13:34:07.524Z,19.20
2022-10-02T13:38:26.708Z,19.10
2022-10-02T13:42:39.613Z,18.80
2022-10-02T13:46:56.755Z,18.30
2022-10-02T13:51:06.102Z,18.00
2022-10-02T13:55:20.063Z,17.60
2022-10-02T13:59:42.407Z,17.30
2022-10-02T14:04:02.892Z,17.00
2022-10-02T14:08:24.656Z,16.70
2022-10-02T14:12:35.063Z,16.60
2022-10-02T14:16:50.260Z,16.50
2022-10-02T14:21:04.754Z,16.40
2022-10-02T14:25:31.591Z,16.20
2022-10-02T14:29:45.674Z,16.20
2022-10-02T14:34:10.911Z,16.20
2022-10-02T14:38:55.306Z,16.10
2022-10-02T14:43:35.015Z,15.80
2022-10-02T14:47:51.079Z,15.80
2022-10-02T14:52:09.503Z,15.80
2022-10-02T14:56:35.083Z,15.70
2022-10-02T15:00:43.388Z,15.80
2022-10-02T15:05:04.088Z,15.60
2022-10-02T15:09:14.930Z,15.60
2022-10-02T15:13:31.087Z,15.40
2022-10-02T15:18:00.090Z,15.40
2022-10-02T15:22:09.209Z,15.30
2022-10-02T15:26:33.437Z,15.30
2022-10-02T15:30:46.261Z,14.90
2022-10-02T15:34:59.265Z,15.00
2022-10-02T15:39:24.929Z,15.00
2022-10-02T15:43:39.785Z,15.00
2022-10-02T15:48:27.762Z,15.10
2022-10-02T15:52:38.798Z,15.00
2022-10-02T15:57:07.962Z,15.00
2022-10-02T16:01:27.819Z,15.10
2022-10-02T16:05:43.629Z,15.00
2022-10-02T16:09:54.694Z,15.00
2022-10-02T16:14:07.494Z,14.90
2022-10-02T16:18:42.989Z,15.00
2022-10-02T16:22:59.360Z,15.00
2022-10-02T16:27:22.107Z,15.10
2022-10-02T16:31:43.972Z,14.80
2022-10-02T16:36:30.110Z,14.80
2022-10-02T16:40:44.698Z,14.80
2022-10-02T16:45:05.946Z,14.70
2022-10-02T16:49:20.170Z,14.60
2022-10-02T16:53:28.979Z,14.60
2022-10-02T16:58:00.308Z,14.50
2022-10-02T17:02:18.488Z,14.60
2022-10-02T17:06:29.762Z,14.60
2022-10-02T17:10:38.670Z,14.50
2022-10-02T17:14:51.711Z,14.50
2022-10-02T17:18:57.297Z,14.50
2022-10-02T17:23:09.025Z,14.50
2022-10-02T17:27:19.239Z,14.40
2022-10-02T17:31:35.625Z,14.40
2022-10-02T17:35:44.071Z,14.40
2022-10-02T17:40:00.274Z,14.20
2022-10-02T17:44:22.308Z,14.30
2022-10-02T17:48:48.495Z,14.40
2022-10-02T17:53:20.025Z,14.40
2022-10-02T17:57:37.084Z,14.20
2022-10-02T18:01:46.693Z,14.40
2022-10-02T18:06:02.367Z,14.20
2022-10-02T18:10:17.514Z,14.20
2022-10-02T18:14:33.212Z,14.40
2022-10-02T18:18:41.053Z,14.20
2022-10-02T18:22:58.318Z,14.20
2022-10-02T18:27:26.068Z,14.10
2022-10-02T18:31:55.867Z,14.20
2022-10-02T18:36:12.614Z,14.10
2022-10-02T18:40:24.994Z,14.10
2022-10-02T18:44:49.686Z,14.20
2022-10-02T18:49:16.518Z,14.10
2022-10-02T18:53:36.035Z,14.10
2022-10-02T18:57:51.627Z,14.10
2022-10-02T19:02:07.942Z,14.10
2022-10-02T19:06:16.394Z,14.20
2022-10-02T19:10:40.262Z,14.20
2022-10-02T19:14:46.846Z,14.20
2022-10-02T19:18:49.438Z,14.10
2022-10-02T19:22:52.274Z,14.10
2022-10-02T19:27:00.629Z,14.10
2022-10-02T19:31:07.449Z,14.10
2022-10-02T19:35:24.561Z,14.10
2022-10-02T19:39:31.364Z,14.00
2022-10-02T19:43:43.470Z,14.00
2022-10-02T19:47:55.898Z,14.00
2022-10-02T19:51:58.987Z,14.00
2022-10-02T19:56:06.313Z,14.00
2022-10-02T20:00:16.613Z,14.00
2022-10-02T20:04:23.147Z,13.90
2022-10-02T20:08:27.499Z,14.00
2022-10-02T20:12:33.125Z,13.90
2022-10-02T20:17:10.062Z,13.90
2022-10-02T20:21:19.484Z,13.90
2022-10-02T20:25:28.827Z,13.90
2022-10-02T20:29:37.953Z,13.90
2022-10-02T20:33:46.406Z,13.80
2022-10-02T20:37:54.523Z,13.80
2022-10-02T20:42:02.913Z,13.80
2022-10-02T20:46:24.981Z,13.70
2022-10-02T20:50:47.261Z,13.70
2022-10-02T20:54:59.682Z,13.70
2022-10-02T20:59:36.904Z,13.60
2022-10-02T21:03:55.474Z,13.60
2022-10-02T21:08:28.291Z,13.60
2022-10-02T21:12:58.281Z,13.60
2022-10-02T21:17:17.118Z,13.60
2022-10-02T21:21:32.010Z,13.60
2022-10-02T21:26:14.176Z,13.60
2022-10-02T21:30:19.349Z,13.60
2022-10-02T21:34:35.071Z,13.60
2022-10-02T21:38:59.583Z,13.50
2022-10-02T21:43:55.746Z,13.50
2022-10-02T21:48:34.622Z,13.50
2022-10-02T21:53:16.141Z,13.60
2022-10-02T21:57:41.269Z,13.60
2022-10-02T22:02:20.352Z,13.60
2022-10-02T22:06:44.020Z,13.60
2022-10-02T22:10:55.283Z,13.60
2022-10-02T22:15:10.674Z,13.50
2022-10-02T22:19:28.023Z,13.50
2022-10-02T22:23:53.855Z,13.50
2022-10-02T22:28:09.837Z,13.40
2022-10-02T22:32:46.871Z,13.40
2022-10-02T22:37:14.598Z,13.50
2022-10-02T22:41:27.452Z,13.40
2022-10-02T22:45:38.662Z,13.40
2022-10-02T22:49:46.550Z,13.40
2022-10-02T22:53:54.410Z,13.40
2022-10-02T22:58:06.096Z,13.40
2022-10-02T23:02:12.485Z,13.40
2022-10-02T23:06:26.177Z,13.50
2022-10-02T23:10:36.443Z,13.40
2022-10-02T23:14:52.915Z,13.40
2022-10-02T23:19:01.552Z,13.40
2022-10-02T23:23:13.667Z,13.40
2022-10-02T23:27:22.991Z,13.40
2022-10-02T23:31:32.553Z,13.40
2022-10-02T23:35:45.266Z,13.40
2022-10-02T23:39:55.033Z,13.40
2022-10-02T23:44:08.587Z,13.40
2022-10-02T23:48:14.491Z,13.30
2022-10-02T23:52:53.449Z,13.30
2022-10-02T23:57:22.515Z,13.30
